createdAt,value
2022-10-13T00:01:09.373Z,31.10
2022-10-13T00:03:38.299Z,29.80
2022-10-13T00:06:08.340Z,32.33
2022-10-13T00:08:37.151Z,28.98
2022-10-13T00:11:13.013Z,30.00
2022-10-13T00:13:41.453Z,28.85
2022-10-13T00:16:10.384Z,29.25
2022-10-13T00:18:38.834Z,33.85
2022-10-13T00:21:09.420Z,33.55
2022-10-13T00:23:38.170Z,31.70
2022-10-13T00:26:08.057Z,31.23
2022-10-13T00:28:38.193Z,32.47
2022-10-13T00:31:18.981Z,30.58
2022-10-13T00:33:47.224Z,30.50
2022-10-13T00:36:15.810Z,34.03
2022-10-13T00:38:44.211Z,32.95
2022-10-13T00:41:12.283Z,32.53
2022-10-13T00:43:58.492Z,34.40
2022-10-13T00:46:28.161Z,28.55
2022-10-13T00:49:03.160Z,31.38
2022-10-13T00:51:34.817Z,29.45
2022-10-13T00:54:05.122Z,31.92
2022-10-13T00:56:33.545Z,30.83
2022-10-13T00:59:04.120Z,30.85
2022-10-13T01:01:32.990Z,31.65
2022-10-13T01:04:01.205Z,28.27
2022-10-13T01:06:29.253Z,32.67
2022-10-13T01:08:59.498Z,25.27
2022-10-13T01:11:43.418Z,29.33
2022-10-13T01:14:23.874Z,28.98
2022-10-13T01:17:00.128Z,30.60
2022-10-13T01:19:46.593Z,30.00
2022-10-13T01:22:31.833Z,29.40
2022-10-13T01:25:07.458Z,31.30
2022-10-13T01:28:00.848Z,26.75
2022-10-13T01:30:35.685Z,28.02
2022-10-13T01:33:14.899Z,25.90
2022-10-13T01:35:54.120Z,27.80
2022-10-13T01:38:31.218Z,25.52
2022-10-13T01:41:05.984Z,26.85
2022-10-13T01:43:39.040Z,25.10
2022-10-13T01:46:13.413Z,25.00
2022-10-13T01:48:43.063Z,26.63
2022-10-13T01:51:15.459Z,22.30
2022-10-13T01:53:46.569Z,22.55
2022-10-13T01:56:14.721Z,25.45
2022-10-13T01:58:42.998Z,19.08
2022-10-13T02:01:23.147Z,19.85
2022-10-13T02:04:01.461Z,22.80
2022-10-13T02:06:33.818Z,20.00
2022-10-13T02:09:05.881Z,19.80
2022-10-13T02:11:33.957Z,21.83
2022-10-13T02:14:08.114Z,23.95
2022-10-13T02:16:43.352Z,19.98
2022-10-13T02:19:13.987Z,18.60
2022-10-13T02:21:42.875Z,17.55
2022-10-13T02:24:11.646Z,20.60
2022-10-13T02:26:39.578Z,18.13
2022-10-13T02:29:11.710Z,24.13
2022-10-13T02:31:42.278Z,18.55
2022-10-13T02:34:10.451Z,17.92
2022-10-13T02:36:39.105Z,17.92
2022-10-13T02:39:08.274Z,17.90
2022-10-13T02:41:36.374Z,21.05
2022-10-13T02:44:04.579Z,22.75
2022-10-13T02:46:42.966Z,18.08
2022-10-13T02:49:11.201Z,18.75
2022-10-13T02:51:40.361Z,19.85
2022-10-13T02:54:08.909Z,18.98
2022-10-13T02:56:36.841Z,17.65
2022-10-13T02:59:04.947Z,18.73
2022-10-13T03:01:33.291Z,22.92
2022-10-13T03:04:02.584Z,17.98
2022-10-13T03:06:30.561Z,19.45
2022-10-13T03:08:59.237Z,15.55
2022-10-13T03:11:27.251Z,17.33
2022-10-13T03:13:55.227Z,19.55
2022-10-13T03:16:23.398Z,16.63
2022-10-13T03:18:51.282Z,21.17
2022-10-13T03:21:20.709Z,18.20
2022-10-13T03:23:48.806Z,22.10
2022-10-13T03:26:16.864Z,21.67
2022-10-13T03:28:44.883Z,19.98
2022-10-13T03:31:13.681Z,20.23
2022-10-13T03:33:41.900Z,21.17
2022-10-13T03:36:09.886Z,17.00
2022-10-13T03:38:40.560Z,22.80
2022-10-13T03:41:11.052Z,22.98
2022-10-13T03:43:39.573Z,19.80
2022-10-13T03:46:08.839Z,18.15
2022-10-13T03:48:37.592Z,20.42
2022-10-13T03:51:07.393Z,19.30
2022-10-13T03:53:35.801Z,18.92
2022-10-13T03:56:06.597Z,18.10
2022-10-13T03:58:40.830Z,16.38
2022-10-13T04:01:08.891Z,20.05
2022-10-13T04:03:38.057Z,21.13
2022-10-13T04:06:06.980Z,17.95
2022-10-13T04:08:35.443Z,17.30
2022-10-13T04:11:07.308Z,15.40
2022-10-13T04:13:36.591Z,16.45
2022-10-13T04:16:05.579Z,18.08
2022-10-13T04:18:33.823Z,16.10
2022-10-13T04:21:02.251Z,18.65
2022-10-13T04:23:30.198Z,13.90
2022-10-13T04:25:58.111Z,17.17
2022-10-13T04:28:27.458Z,19.75
2022-10-13T04:30:55.374Z,19.52
2022-10-13T04:33:23.302Z,24.60
2022-10-13T04:35:51.273Z,24.35
2022-10-13T04:38:19.134Z,26.35
2022-10-13T04:40:47.181Z,28.42
2022-10-13T04:43:15.861Z,24.58
2022-10-13T04:45:45.131Z,26.23
2022-10-13T04:48:13.037Z,27.38
2022-10-13T04:50:41.086Z,25.20
2022-10-13T04:53:09.018Z,28.05
2022-10-13T04:55:37.719Z,30.05
2022-10-13T04:58:05.710Z,25.80
2022-10-13T05:00:33.649Z,29.77
2022-10-13T05:03:02.979Z,26.05
2022-10-13T05:05:30.941Z,40.35
2022-10-13T05:07:58.816Z,27.08
2022-10-13T05:10:29.210Z,26.67
2022-10-13T05:12:59.571Z,25.33
2022-10-13T05:15:27.569Z,34.40
2022-10-13T05:17:55.722Z,25.58
2022-10-13T05:20:25.854Z,30.08
2022-10-13T05:22:53.894Z,26.40
2022-10-13T05:25:22.137Z,24.60
2022-10-13T05:27:50.110Z,22.23
2022-10-13T05:30:18.112Z,29.27
2022-10-13T05:32:48.306Z,23.27
2022-10-13T05:35:24.397Z,23.02
2022-10-13T05:37:52.460Z,23.20
2022-10-13T05:40:21.285Z,26.95
2022-10-13T05:42:51.002Z,25.20
2022-10-13T05:45:20.716Z,21.75
2022-10-13T05:47:48.678Z,28.13
2022-10-13T05:50:16.804Z,26.13
2022-10-13T05:52:46.885Z,28.02
2022-10-13T05:55:17.201Z,28.83
2022-10-13T05:57:49.412Z,26.75
2022-10-13T06:00:20.173Z,28.52
2022-10-13T06:02:51.087Z,27.23
2022-10-13T06:05:22.204Z,26.85
2022-10-13T06:07:56.119Z,30.33
2022-10-13T06:10:24.607Z,33.45
2022-10-13T06:12:52.693Z,28.40
2022-10-13T06:15:24.425Z,27.52
2022-10-13T06:17:55.458Z,23.13
2022-10-13T06:20:23.758Z,28.40
2022-10-13T06:22:51.729Z,22.77
2022-10-13T06:25:21.067Z,24.20
2022-10-13T06:27:49.876Z,26.33
2022-10-13T06:30:18.035Z,23.90
2022-10-13T06:32:45.978Z,25.90
2022-10-13T06:35:14.498Z,26.50
2022-10-13T06:37:42.483Z,30.00
2022-10-13T06:40:12.342Z,22.98
2022-10-13T06:42:41.645Z,24.95
2022-10-13T06:45:11.340Z,26.33
2022-10-13T06:47:42.270Z,24.10
2022-10-13T06:50:10.889Z,24.27
2022-10-13T06:52:39.176Z,22.35
2022-10-13T06:55:07.606Z,21.58
2022-10-13T06:57:35.979Z,24.10
2022-10-13T07:00:09.510Z,22.67
2022-10-13T07:02:38.702Z,21.85
2022-10-13T07:05:07.149Z,23.33
2022-10-13T07:07:35.277Z,25.52
2022-10-13T07:10:03.262Z,21.88
2022-10-13T07:12:31.180Z,23.10
2022-10-13T07:14:59.127Z,22.55
2022-10-13T07:17:28.451Z,19.30
2022-10-13T07:19:57.991Z,20.77
2022-10-13T07:22:27.489Z,22.80
2022-10-13T07:24:55.441Z,21.17
2022-10-13T07:27:25.385Z,21.88
2022-10-13T07:29:53.619Z,21.23
2022-10-13T07:32:21.593Z,21.45
2022-10-13T07:34:53.373Z,20.27
2022-10-13T07:37:21.930Z,23.13
2022-10-13T07:39:50.176Z,21.75
2022-10-13T07:42:18.494Z,23.75
2022-10-13T07:44:49.007Z,29.00
2022-10-13T07:47:17.369Z,26.15
2022-10-13T07:49:45.687Z,30.00
2022-10-13T07:52:15.036Z,25.15
2022-10-13T07:54:43.047Z,26.98
2022-10-13T07:57:11.052Z,26.27
2022-10-13T07:59:39.198Z,31.48
2022-10-13T08:02:10.771Z,27.00
2022-10-13T08:04:39.090Z,26.45
2022-10-13T08:07:07.659Z,29.10
2022-10-13T08:09:37.122Z,31.80
2022-10-13T08:12:05.365Z,27.25
2022-10-13T08:14:33.703Z,29.10
2022-10-13T08:17:01.840Z,25.45
2022-10-13T08:19:29.877Z,27.55
2022-10-13T08:21:59.504Z,25.33
2022-10-13T08:24:29.559Z,26.80
2022-10-13T08:26:58.828Z,28.45
2022-10-13T08:29:26.867Z,26.55
2022-10-13T08:31:55.799Z,25.48
2022-10-13T08:34:24.269Z,22.73
2022-10-13T08:36:54.621Z,26.00
2022-10-13T08:39:24.472Z,23.83
2022-10-13T08:41:52.940Z,21.42
2022-10-13T08:45:10.498Z,26.23
2022-10-13T08:47:21.569Z,20.25
2022-10-13T08:49:49.904Z,22.00
2022-10-13T08:52:21.234Z,19.23
2022-10-13T08:54:50.403Z,25.65
2022-10-13T08:57:19.409Z,24.35
2022-10-13T08:59:49.533Z,19.30
2022-10-13T09:02:24.848Z,22.05
2022-10-13T09:04:54.089Z,18.08
2022-10-13T09:07:25.298Z,22.35
2022-10-13T09:09:54.468Z,20.67
2022-10-13T09:12:26.515Z,23.08
2022-10-13T09:15:03.276Z,22.42
2022-10-13T09:17:33.085Z,18.48
2022-10-13T09:20:03.408Z,18.02
2022-10-13T09:22:33.885Z,19.02
2022-10-13T09:25:20.219Z,19.08
2022-10-13T09:27:50.591Z,20.75
2022-10-13T09:30:41.999Z,21.50
2022-10-13T09:33:24.354Z,19.67
2022-10-13T09:36:14.504Z,17.27
2022-10-13T09:38:45.314Z,18.17
2022-10-13T09:41:17.299Z,18.52
2022-10-13T09:43:59.769Z,19.15
2022-10-13T09:46:32.625Z,16.13
2022-10-13T09:49:04.022Z,14.57
2022-10-13T09:51:37.470Z,16.95
2022-10-13T09:54:28.972Z,16.35
2022-10-13T09:57:02.001Z,16.90
2022-10-13T09:59:35.889Z,16.23
2022-10-13T10:02:26.428Z,17.20
2022-10-13T10:04:58.068Z,15.93
2022-10-13T10:07:31.073Z,16.40
2022-10-13T10:10:05.550Z,17.95
2022-10-13T10:12:38.196Z,18.42
2022-10-13T10:15:18.236Z,14.80
2022-10-13T10:17:53.678Z,14.10
2022-10-13T10:20:50.084Z,16.48
2022-10-13T10:23:23.374Z,15.32
2022-10-13T10:25:55.090Z,14.30
2022-10-13T10:28:39.277Z,16.77
2022-10-13T10:31:17.865Z,11.95
2022-10-13T10:33:58.723Z,16.45
2022-10-13T10:36:35.647Z,14.93
2022-10-13T10:39:13.794Z,15.15
2022-10-13T10:41:50.640Z,11.48
2022-10-13T10:44:23.147Z,14.52
2022-10-13T10:46:52.322Z,12.47
2022-10-13T10:49:28.005Z,11.45
2022-10-13T10:51:56.277Z,13.77
2022-10-13T10:54:32.062Z,12.85
2022-10-13T10:57:05.057Z,15.07
2022-10-13T10:59:50.315Z,13.20
2022-10-13T11:02:36.245Z,11.27
2022-10-13T11:05:06.545Z,11.48
2022-10-13T11:07:57.586Z,14.32
2022-10-13T11:10:26.872Z,12.05
2022-10-13T11:13:22.286Z,12.52
2022-10-13T11:15:50.761Z,8.95
2022-10-13T11:19:05.482Z,10.20
2022-10-13T11:22:22.453Z,12.20
2022-10-13T11:25:20.206Z,10.80
2022-10-13T11:27:48.140Z,12.27
2022-10-13T11:30:43.043Z,22.42
2022-10-13T11:33:33.613Z,12.80
2022-10-13T11:36:34.877Z,26.08
2022-10-13T11:39:39.694Z,11.52
2022-10-13T11:42:24.125Z,18.25
2022-10-13T11:44:56.881Z,11.20
2022-10-13T11:47:53.901Z,11.35
2022-10-13T11:50:29.981Z,7.97
2022-10-13T11:53:18.659Z,11.32
2022-10-13T11:55:51.938Z,10.63
2022-10-13T11:58:23.469Z,11.65
2022-10-13T12:00:53.337Z,14.02
2022-10-13T12:03:23.084Z,9.20
2022-10-13T12:05:52.297Z,12.30
2022-10-13T12:08:21.901Z,10.57
2022-10-13T12:10:55.686Z,14.13
2022-10-13T12:13:27.548Z,13.98
2022-10-13T12:16:03.054Z,13.48
2022-10-13T12:18:34.116Z,12.50
2022-10-13T12:21:04.539Z,14.63
2022-10-13T12:23:33.696Z,8.13
2022-10-13T12:26:01.910Z,13.70
2022-10-13T12:28:44.159Z,13.82
2022-10-13T12:31:20.044Z,11.93
2022-10-13T12:33:54.443Z,10.77
2022-10-13T12:36:26.370Z,14.45
2022-10-13T12:38:56.555Z,11.68
2022-10-13T12:41:28.337Z,13.98
2022-10-13T12:44:01.088Z,10.40
2022-10-13T12:46:39.810Z,10.45
2022-10-13T12:49:08.690Z,9.73
2022-10-13T12:51:39.543Z,12.27
2022-10-13T12:54:09.541Z,8.45
2022-10-13T12:56:38.057Z,14.45
2022-10-13T12:59:14.862Z,12.82
2022-10-13T13:01:44.765Z,12.68
2022-10-13T13:04:28.454Z,11.32
2022-10-13T13:09:28.149Z,11.68
2022-10-13T13:12:23.791Z,10.05
2022-10-13T13:14:54.998Z,17.02
2022-10-13T13:20:21.978Z,16.20
2022-10-13T13:22:50.886Z,15.73
2022-10-13T13:25:18.894Z,12.38
2022-10-13T13:27:46.798Z,14.32
2022-10-13T13:30:21.521Z,14.02
2022-10-13T13:32:49.809Z,13.23
2022-10-13T13:35:17.813Z,17.00
2022-10-13T13:37:49.685Z,12.10
2022-10-13T13:40:21.167Z,11.27
2022-10-13T13:42:49.694Z,14.70
2022-10-13T13:45:20.727Z,15.32
2022-10-13T13:47:49.262Z,16.83
2022-10-13T13:50:21.245Z,17.17
2022-10-13T13:52:57.375Z,13.07
2022-10-13T13:55:26.280Z,11.07
2022-10-13T13:57:54.249Z,11.93
2022-10-13T14:00:24.037Z,12.32
2022-10-13T14:02:56.311Z,10.63
2022-10-13T14:05:24.687Z,10.35
2022-10-13T14:07:55.170Z,17.35
2022-10-13T14:10:23.293Z,11.07
2022-10-13T14:12:51.292Z,15.23
2022-10-13T14:15:19.634Z,12.73
2022-10-13T14:17:48.928Z,13.85
2022-10-13T14:20:16.949Z,12.10
2022-10-13T14:22:46.054Z,12.38
2022-10-13T14:25:14.960Z,14.23
2022-10-13T14:27:45.684Z,12.38
2022-10-13T14:30:15.300Z,11.55
2022-10-13T14:32:43.957Z,12.48
2022-10-13T14:35:13.274Z,13.82
2022-10-13T14:37:41.231Z,13.13
2022-10-13T14:40:10.080Z,11.43
2022-10-13T14:42:40.195Z,11.82
2022-10-13T14:45:10.538Z,13.35
2022-10-13T14:47:40.277Z,13.77
2022-10-13T14:50:09.354Z,8.85
2022-10-13T14:52:38.741Z,11.93
2022-10-13T14:55:07.103Z,13.25
2022-10-13T14:57:35.458Z,9.68
2022-10-13T15:00:03.691Z,16.65
2022-10-13T15:02:31.732Z,10.48
2022-10-13T15:04:59.690Z,14.80
2022-10-13T15:07:27.683Z,15.32
2022-10-13T15:10:05.988Z,8.57
2022-10-13T15:12:34.917Z,11.45
2022-10-13T15:15:03.040Z,11.80
2022-10-13T15:17:33.140Z,17.17
2022-10-13T15:20:01.511Z,13.40
2022-10-13T15:22:29.470Z,10.38
2022-10-13T15:24:59.017Z,12.95
2022-10-13T15:27:27.029Z,14.15
2022-10-13T15:29:54.961Z,12.73
2022-10-13T15:32:23.260Z,13.40
2022-10-13T15:34:55.811Z,16.17
2022-10-13T15:37:23.817Z,13.50
2022-10-13T15:39:56.886Z,12.98
2022-10-13T15:42:26.697Z,14.40
2022-10-13T15:45:09.598Z,13.88
2022-10-13T15:47:38.734Z,11.55
2022-10-13T15:50:07.436Z,14.70
2022-10-13T15:52:39.037Z,11.55
2022-10-13T15:55:07.825Z,13.80
2022-10-13T15:57:37.219Z,16.42
2022-10-13T16:00:06.367Z,10.77
2022-10-13T16:02:41.093Z,12.63
2022-10-13T16:05:10.809Z,12.52
2022-10-13T16:07:40.001Z,15.85
2022-10-13T16:10:08.765Z,14.00
2022-10-13T16:12:38.404Z,17.15
2022-10-13T16:15:07.190Z,16.27
2022-10-13T16:17:35.408Z,14.55
2022-10-13T16:20:03.502Z,13.65
2022-10-13T16:22:31.539Z,14.50
2022-10-13T16:24:59.499Z,15.32
2022-10-13T16:27:27.489Z,14.27
2022-10-13T16:29:56.755Z,18.30
2022-10-13T16:32:24.725Z,16.98
2022-10-13T16:34:52.677Z,18.05
2022-10-13T16:37:20.964Z,12.32
2022-10-13T16:39:51.761Z,15.82
2022-10-13T16:42:20.245Z,14.57
2022-10-13T16:44:48.151Z,18.95
2022-10-13T16:47:18.610Z,13.68
2022-10-13T16:49:47.273Z,16.58
2022-10-13T16:52:15.952Z,13.00
2022-10-13T16:54:45.011Z,14.02
2022-10-13T16:57:12.937Z,13.60
2022-10-13T16:59:41.037Z,12.65
2022-10-13T17:02:14.210Z,12.48
2022-10-13T17:04:44.566Z,13.05
2022-10-13T17:07:12.722Z,15.48
2022-10-13T17:09:40.672Z,13.38
2022-10-13T17:12:08.784Z,15.30
2022-10-13T17:14:36.794Z,16.90
2022-10-13T17:17:05.022Z,14.30
2022-10-13T17:19:32.979Z,12.63
2022-10-13T17:22:02.255Z,10.68
2022-10-13T17:24:30.755Z,13.30
2022-10-13T17:26:58.647Z,11.95
2022-10-13T17:29:26.649Z,12.77
2022-10-13T17:31:54.637Z,15.02
2022-10-13T17:34:23.649Z,12.98
2022-10-13T17:36:52.480Z,12.98
2022-10-13T17:39:21.944Z,19.52
2022-10-13T17:41:50.069Z,14.35
2022-10-13T17:44:20.676Z,16.58
2022-10-13T17:46:49.718Z,16.20
2022-10-13T17:49:18.411Z,13.70
2022-10-13T17:51:46.712Z,13.90
2022-10-13T17:54:16.310Z,12.50
2022-10-13T17:56:47.393Z,16.55
2022-10-13T17:59:16.643Z,12.50
2022-10-13T18:01:45.795Z,18.10
2022-10-13T18:04:15.501Z,15.65
2022-10-13T18:06:44.771Z,18.70
2022-10-13T18:09:17.380Z,18.88
2022-10-13T18:11:50.700Z,15.13
2022-10-13T18:14:19.819Z,16.20
2022-10-13T18:16:49.781Z,17.00
2022-10-13T18:19:17.964Z,17.70
2022-10-13T18:21:45.866Z,14.55
2022-10-13T18:24:13.836Z,21.33
2022-10-13T18:26:42.065Z,16.83
2022-10-13T18:29:12.711Z,15.15
2022-10-13T18:31:42.433Z,15.80
2022-10-13T18:34:13.674Z,20.50
2022-10-13T18:36:43.601Z,18.17
2022-10-13T18:39:13.739Z,18.40
2022-10-13T18:41:43.804Z,14.80
2022-10-13T18:44:13.637Z,15.20
2022-10-13T18:46:41.788Z,15.88
2022-10-13T18:49:13.495Z,14.65
2022-10-13T18:54:11.401Z,15.10
2022-10-13T18:56:39.626Z,13.30
2022-10-13T18:59:08.915Z,15.35
2022-10-13T19:01:40.855Z,14.90
2022-10-13T19:04:12.541Z,20.25
2022-10-13T19:06:40.972Z,14.98
2022-10-13T19:09:11.596Z,16.05
2022-10-13T19:11:39.904Z,16.20
2022-10-13T19:14:11.784Z,20.95
2022-10-13T19:16:43.569Z,16.20
2022-10-13T19:19:12.111Z,16.30
2022-10-13T19:21:40.624Z,16.63
2022-10-13T19:24:10.473Z,16.20
2022-10-13T19:26:39.440Z,15.73
2022-10-13T19:29:09.848Z,15.95
2022-10-13T19:31:40.506Z,17.42
2022-10-13T19:34:08.780Z,20.27
2022-10-13T19:36:38.863Z,18.23
2022-10-13T19:39:11.700Z,18.77
2022-10-13T19:41:40.265Z,17.60
2022-10-13T19:44:08.364Z,17.20
2022-10-13T19:46:41.462Z,18.20
2022-10-13T19:49:09.689Z,15.27
2022-10-13T19:51:41.682Z,16.17
2022-10-13T19:54:10.898Z,17.90
2022-10-13T19:56:39.057Z,15.48
2022-10-13T19:59:09.273Z,14.73
2022-10-13T20:01:39.856Z,14.27
2022-10-13T20:04:15.830Z,16.30
2022-10-13T20:06:44.709Z,18.20
2022-10-13T20:09:12.657Z,14.40
2022-10-13T20:11:40.791Z,14.60
2022-10-13T20:14:08.747Z,12.20
2022-10-13T20:16:37.806Z,14.43
2022-10-13T20:19:05.931Z,15.18
2022-10-13T20:21:35.258Z,13.50
2022-10-13T20:24:03.253Z,14.82
2022-10-13T20:26:31.260Z,18.23
2022-10-13T20:29:00.271Z,15.27
2022-10-13T20:31:28.398Z,15.25
2022-10-13T20:33:57.760Z,16.80
2022-10-13T20:36:36.004Z,15.70
2022-10-13T20:39:08.549Z,16.52
2022-10-13T20:41:36.953Z,15.98
2022-10-13T20:44:05.177Z,13.85
2022-10-13T20:46:34.530Z,15.27
2022-10-13T20:49:11.346Z,15.68
2022-10-13T20:51:40.811Z,17.00
2022-10-13T20:54:10.470Z,16.70
2022-10-13T20:56:38.527Z,14.90
2022-10-13T20:59:07.982Z,19.40
2022-10-13T21:01:36.896Z,17.55
2022-10-13T21:04:05.511Z,14.15
2022-10-13T21:06:34.150Z,14.57
2022-10-13T21:09:02.707Z,14.98
2022-10-13T21:11:32.047Z,19.65
2022-10-13T21:14:00.230Z,17.25
2022-10-13T21:16:29.278Z,14.63
2022-10-13T21:18:58.433Z,12.63
2022-10-13T21:21:28.196Z,14.80
2022-10-13T21:23:57.984Z,14.00
2022-10-13T21:26:27.185Z,12.60
2022-10-13T21:28:57.339Z,14.50
2022-10-13T21:31:26.769Z,15.45
2022-10-13T21:33:55.826Z,16.25
2022-10-13T21:36:25.689Z,13.73
2022-10-13T21:38:55.314Z,15.35
2022-10-13T21:41:23.886Z,12.43
2022-10-13T21:43:52.328Z,14.45
2022-10-13T21:46:24.280Z,17.13
2022-10-13T21:48:56.670Z,13.15
2022-10-13T21:51:29.129Z,14.95
2022-10-13T21:53:59.219Z,12.90
2022-10-13T21:56:28.206Z,13.07
2022-10-13T21:58:56.980Z,17.70
2022-10-13T22:01:26.375Z,14.75
2022-10-13T22:03:56.187Z,15.90
2022-10-13T22:06:27.785Z,15.45
2022-10-13T22:08:57.308Z,16.33
2022-10-13T22:11:27.028Z,13.35
2022-10-13T22:13:56.770Z,16.67
2022-10-13T22:16:28.750Z,12.93
2022-10-13T22:18:57.830Z,15.90
2022-10-13T22:21:28.779Z,19.40
2022-10-13T22:23:58.251Z,20.23
2022-10-13T22:26:27.284Z,19.63
2022-10-13T22:28:55.449Z,25.80
2022-10-13T22:31:23.421Z,26.67
2022-10-13T22:33:53.713Z,20.23
2022-10-13T22:36:24.035Z,16.25
2022-10-13T22:38:54.216Z,13.88
2022-10-13T22:41:22.293Z,18.33
2022-10-13T22:43:51.640Z,15.23
2022-10-13T22:46:21.050Z,14.95
2022-10-13T22:48:49.441Z,17.48
2022-10-13T22:51:20.668Z,14.82
2022-10-13T22:53:49.848Z,14.77
2022-10-13T22:56:19.978Z,13.13
2022-10-13T22:58:50.923Z,10.85
2022-10-13T23:01:19.604Z,16.48
2022-10-13T23:03:48.914Z,12.18
2022-10-13T23:06:20.928Z,16.95
2022-10-13T23:08:48.929Z,13.35
2022-10-13T23:11:17.337Z,14.30
2022-10-13T23:13:45.516Z,8.50
2022-10-13T23:16:15.662Z,7.90
2022-10-13T23:18:43.978Z,13.60
2022-10-13T23:21:27.006Z,9.65
2022-10-13T23:23:56.741Z,6.55
2022-10-13T23:26:25.159Z,9.32
2022-10-13T23:28:55.608Z,7.80
2022-10-13T23:31:24.470Z,6.75
2022-10-13T23:33:52.617Z,6.60
2022-10-13T23:36:23.700Z,9.65
2022-10-13T23:38:57.121Z,6.43
2022-10-13T23:43:53.416Z,7.63
2022-10-13T23:46:21.404Z,7.57
2022-10-13T23:48:49.415Z,10.25
2022-10-13T23:51:19.785Z,6.15
2022-10-13T23:53:48.813Z,6.53
2022-10-13T23:56:20.099Z,8.18
2022-10-13T23:58:48.041Z,4.82
